createdAt,value
2018-02-27T00:01:43.614Z,9.67
2018-02-27T00:04:11.706Z,13.33
2018-02-27T00:06:40.440Z,14.50
2018-02-27T00:09:08.599Z,14.20
2018-02-27T00:11:37.500Z,16.60
2018-02-27T00:14:06.459Z,12.73
2018-02-27T00:16:36.120Z,13.00
2018-02-27T00:19:04.237Z,14.83
2018-02-27T00:21:32.411Z,14.40
2018-02-27T00:24:00.539Z,14.50
2018-02-27T00:26:29.916Z,13.00
2018-02-27T00:28:59.241Z,11.53
2018-02-27T00:31:27.904Z,13.93
2018-02-27T00:33:58.010Z,13.27
2018-02-27T00:36:27.753Z,11.33
2018-02-27T00:38:57.726Z,11.77
2018-02-27T00:41:25.861Z,13.20
2018-02-27T00:43:55.014Z,11.93
2018-02-27T00:46:24.919Z,15.30
2018-02-27T00:48:53.589Z,14.23
2018-02-27T00:51:22.525Z,21.20
2018-02-27T00:53:50.658Z,14.60
2018-02-27T00:56:19.967Z,13.47
2018-02-27T00:58:48.093Z,15.80
2018-02-27T01:01:16.254Z,15.60
2018-02-27T01:03:46.408Z,11.10
2018-02-27T01:06:14.540Z,10.70
2018-02-27T01:08:43.145Z,13.63
2018-02-27T01:11:13.301Z,10.93
2018-02-27T01:13:43.341Z,13.80
2018-02-27T01:16:12.240Z,14.27
2018-02-27T01:18:41.552Z,14.80
2018-02-27T01:21:11.176Z,14.43
2018-02-27T01:23:39.336Z,14.70
2018-02-27T01:26:08.007Z,16.53
2018-02-27T01:28:37.307Z,9.60
2018-02-27T01:31:06.582Z,10.37
2018-02-27T01:33:36.319Z,13.90
2018-02-27T01:36:06.629Z,11.50
2018-02-27T01:38:36.954Z,11.50
2018-02-27T01:41:05.122Z,13.03
2018-02-27T01:43:33.234Z,16.73
2018-02-27T01:46:03.458Z,13.40
2018-02-27T01:48:31.594Z,13.13
2018-02-27T01:51:13.704Z,11.20
2018-02-27T01:53:42.598Z,15.87
2018-02-27T01:56:11.517Z,11.10
2018-02-27T01:58:41.152Z,9.07
2018-02-27T02:01:11.042Z,9.23
2018-02-27T02:03:39.165Z,11.60
2018-02-27T02:06:08.996Z,11.73
2018-02-27T02:08:38.162Z,12.00
2018-02-27T02:11:06.308Z,13.43
2018-02-27T02:13:35.970Z,15.70
2018-02-27T02:16:04.941Z,13.27
2018-02-27T02:18:33.830Z,13.60
2018-02-27T02:21:01.979Z,13.80
2018-02-27T02:23:30.584Z,14.00
2018-02-27T02:25:58.742Z,10.63
2018-02-27T02:28:26.869Z,12.00
2018-02-27T02:30:56.720Z,12.53
2018-02-27T02:33:26.150Z,15.63
2018-02-27T02:35:54.734Z,13.33
2018-02-27T02:38:23.275Z,14.93
2018-02-27T02:40:51.885Z,12.43
2018-02-27T02:43:20.521Z,12.80
2018-02-27T02:45:51.577Z,11.80
2018-02-27T02:48:21.163Z,8.57
2018-02-27T02:50:49.293Z,16.57
2018-02-27T02:53:18.989Z,9.77
2018-02-27T02:55:47.109Z,11.23
2018-02-27T02:58:16.854Z,14.43
2018-02-27T03:00:44.978Z,14.23
2018-02-27T03:03:13.124Z,13.80
2018-02-27T03:05:41.257Z,14.30
2018-02-27T03:08:10.178Z,16.33
2018-02-27T03:10:41.062Z,11.80
2018-02-27T03:13:09.209Z,15.17
2018-02-27T03:15:37.337Z,10.03
2018-02-27T03:18:06.306Z,11.87
2018-02-27T03:20:34.442Z,12.13
2018-02-27T03:23:02.605Z,10.90
2018-02-27T03:25:31.174Z,13.50
2018-02-27T03:27:59.825Z,12.63
2018-02-27T03:30:30.905Z,10.60
2018-02-27T03:32:59.053Z,12.30
2018-02-27T03:35:29.411Z,9.60
2018-02-27T03:37:57.942Z,15.00
2018-02-27T03:40:26.546Z,16.00
2018-02-27T03:42:55.486Z,13.63
2018-02-27T03:45:24.373Z,14.50
2018-02-27T03:47:52.525Z,10.40
2018-02-27T03:50:20.659Z,7.70
2018-02-27T03:52:48.820Z,9.67
2018-02-27T03:55:18.588Z,10.90
2018-02-27T03:57:46.741Z,15.50
2018-02-27T04:00:15.642Z,9.63
2018-02-27T04:02:43.791Z,15.97
2018-02-27T04:05:12.429Z,13.83
2018-02-27T04:07:40.574Z,14.60
2018-02-27T04:10:08.704Z,14.20
2018-02-27T04:12:36.857Z,11.33
2018-02-27T04:15:05.454Z,11.33
2018-02-27T04:17:34.395Z,10.67
2018-02-27T04:20:02.560Z,10.77
2018-02-27T04:22:31.509Z,15.10
2018-02-27T04:24:59.635Z,13.00
2018-02-27T04:27:27.790Z,14.80
2018-02-27T04:29:56.697Z,11.20
2018-02-27T04:32:24.851Z,11.23
2018-02-27T04:34:53.593Z,10.87
2018-02-27T04:37:21.733Z,14.60
2018-02-27T04:39:52.334Z,10.73
2018-02-27T04:42:20.478Z,16.40
2018-02-27T04:44:49.089Z,12.80
2018-02-27T04:47:17.249Z,14.00
2018-02-27T04:49:45.978Z,11.80
2018-02-27T04:52:15.344Z,11.27
2018-02-27T04:54:43.475Z,13.20
2018-02-27T04:57:12.058Z,13.90
2018-02-27T04:59:41.610Z,18.63
2018-02-27T05:02:10.962Z,13.90
2018-02-27T05:04:41.962Z,18.13
2018-02-27T05:07:10.106Z,13.97
2018-02-27T05:09:38.252Z,16.27
2018-02-27T05:12:07.966Z,13.43
2018-02-27T05:14:36.118Z,13.80
2018-02-27T05:17:05.033Z,11.67
2018-02-27T05:19:33.148Z,14.33
2018-02-27T05:22:02.373Z,11.07
2018-02-27T05:24:31.266Z,15.37
2018-02-27T05:26:59.874Z,14.67
2018-02-27T05:29:28.015Z,17.23
2018-02-27T05:31:57.299Z,17.27
2018-02-27T05:34:25.441Z,16.40
2018-02-27T05:36:54.002Z,13.50
2018-02-27T05:39:23.093Z,19.23
2018-02-27T05:41:54.418Z,15.53
2018-02-27T05:44:22.553Z,13.87
2018-02-27T05:46:50.673Z,13.87
2018-02-27T05:49:19.605Z,15.37
2018-02-27T05:51:48.152Z,13.20
2018-02-27T05:54:18.301Z,11.23
2018-02-27T05:56:46.422Z,12.20
2018-02-27T05:59:15.061Z,17.23
2018-02-27T06:01:44.799Z,13.73
2018-02-27T06:04:14.068Z,11.13
2018-02-27T06:06:42.193Z,18.53
2018-02-27T06:09:12.057Z,17.83
2018-02-27T06:11:40.226Z,10.77
2018-02-27T06:14:08.419Z,15.60
2018-02-27T06:16:36.561Z,15.13
2018-02-27T06:19:04.778Z,9.57
2018-02-27T06:21:33.424Z,16.17
2018-02-27T06:24:03.498Z,16.40
2018-02-27T06:26:32.951Z,26.07
2018-02-27T06:29:03.040Z,14.93
2018-02-27T06:31:31.161Z,14.27
2018-02-27T06:33:59.780Z,36.77
2018-02-27T06:36:28.701Z,36.60
2018-02-27T06:38:57.621Z,16.80
2018-02-27T06:41:25.769Z,15.33
2018-02-27T06:43:55.593Z,20.17
2018-02-27T06:46:26.114Z,21.00
2018-02-27T06:48:55.041Z,19.87
2018-02-27T06:51:23.191Z,17.77
2018-02-27T06:53:52.522Z,23.10
2018-02-27T06:56:20.648Z,18.23
2018-02-27T06:58:50.689Z,19.47
2018-02-27T07:01:19.742Z,20.00
2018-02-27T07:03:48.720Z,18.17
2018-02-27T07:06:20.104Z,23.57
2018-02-27T07:08:49.021Z,16.40
2018-02-27T07:11:19.108Z,15.33
2018-02-27T07:13:47.761Z,18.30
2018-02-27T07:16:16.796Z,17.50
2018-02-27T07:18:45.703Z,16.00
2018-02-27T07:21:14.366Z,18.03
2018-02-27T07:23:42.995Z,18.93
2018-02-27T07:26:11.110Z,11.03
2018-02-27T07:28:41.945Z,14.37
2018-02-27T07:31:10.541Z,13.20
2018-02-27T07:33:40.631Z,14.73
2018-02-27T07:36:10.147Z,13.23
2018-02-27T07:38:39.692Z,14.03
2018-02-27T07:41:07.823Z,12.63
2018-02-27T07:43:36.400Z,13.10
2018-02-27T07:46:04.532Z,14.17
2018-02-27T07:48:33.460Z,16.17
2018-02-27T07:51:01.600Z,15.27
2018-02-27T07:53:29.758Z,17.30
2018-02-27T07:55:57.884Z,12.90
2018-02-27T07:58:26.018Z,18.23
2018-02-27T08:00:54.895Z,13.93
2018-02-27T08:03:23.482Z,14.57
2018-02-27T08:05:52.061Z,13.33
2018-02-27T08:08:21.850Z,15.63
2018-02-27T08:10:51.625Z,13.07
2018-02-27T08:13:20.333Z,11.73
2018-02-27T08:15:48.453Z,16.40
2018-02-27T08:18:18.341Z,12.53
2018-02-27T08:20:47.220Z,13.73
2018-02-27T08:23:15.394Z,12.57
2018-02-27T08:25:43.513Z,15.77
2018-02-27T08:28:12.100Z,13.20
2018-02-27T08:30:41.062Z,14.10
2018-02-27T08:33:11.282Z,14.47
2018-02-27T08:35:39.428Z,12.50
2018-02-27T08:38:12.441Z,14.40
2018-02-27T08:40:40.639Z,16.73
2018-02-27T08:43:10.154Z,13.93
2018-02-27T08:45:38.193Z,11.03
2018-02-27T08:48:07.860Z,12.63
2018-02-27T08:50:36.593Z,14.83
2018-02-27T08:53:05.950Z,12.73
2018-02-27T08:55:35.270Z,14.30
2018-02-27T08:58:03.877Z,14.97
2018-02-27T09:00:32.786Z,13.40
2018-02-27T09:03:02.413Z,16.03
2018-02-27T09:05:30.557Z,14.60
2018-02-27T09:07:59.444Z,12.50
2018-02-27T09:10:28.371Z,17.10
2018-02-27T09:12:56.499Z,12.23
2018-02-27T09:15:24.649Z,12.80
2018-02-27T09:17:52.776Z,17.03
2018-02-27T09:20:20.976Z,11.97
2018-02-27T09:22:49.842Z,16.57
2018-02-27T09:25:18.809Z,12.23
2018-02-27T09:27:47.688Z,14.37
2018-02-27T09:30:15.839Z,14.53
2018-02-27T09:32:43.944Z,12.53
2018-02-27T09:35:13.447Z,11.10
2018-02-27T09:37:42.106Z,14.53
2018-02-27T09:40:10.250Z,14.40
2018-02-27T09:42:38.397Z,11.43
2018-02-27T09:45:07.340Z,11.77
2018-02-27T09:47:36.008Z,9.57
2018-02-27T09:50:04.314Z,11.30
2018-02-27T09:52:32.874Z,9.10
2018-02-27T09:55:01.017Z,12.90
2018-02-27T09:57:29.141Z,10.37
2018-02-27T09:59:57.754Z,14.10
2018-02-27T10:02:26.653Z,7.90
2018-02-27T10:04:58.537Z,12.70
2018-02-27T10:07:26.664Z,8.73
2018-02-27T10:09:55.313Z,8.43
2018-02-27T10:12:24.542Z,8.03
2018-02-27T10:14:54.204Z,11.10
2018-02-27T10:17:23.125Z,9.53
2018-02-27T10:19:53.258Z,13.20
2018-02-27T10:22:21.382Z,11.77
2018-02-27T10:24:49.521Z,8.00
2018-02-27T10:27:18.669Z,10.50
2018-02-27T10:29:46.882Z,13.60
2018-02-27T10:32:17.308Z,8.00
2018-02-27T10:34:45.457Z,8.07
2018-02-27T10:37:13.573Z,9.13
2018-02-27T10:39:42.884Z,9.10
2018-02-27T10:42:11.766Z,9.10
2018-02-27T10:44:41.568Z,7.03
2018-02-27T10:47:09.673Z,11.80
2018-02-27T10:49:38.549Z,8.13
2018-02-27T10:52:09.096Z,7.90
2018-02-27T10:54:38.079Z,10.00
2018-02-27T10:57:06.242Z,11.73
2018-02-27T10:59:35.147Z,7.60
2018-02-27T11:02:03.277Z,6.27
2018-02-27T11:04:33.318Z,6.63
2018-02-27T11:07:02.206Z,7.43
2018-02-27T11:09:31.545Z,8.97
2018-02-27T11:11:59.653Z,9.93
2018-02-27T11:14:27.866Z,8.47
2018-02-27T11:16:57.701Z,4.33
2018-02-27T11:19:26.596Z,6.73
2018-02-27T11:21:54.712Z,5.80
2018-02-27T11:24:22.859Z,7.20
2018-02-27T11:26:50.981Z,4.87
2018-02-27T11:29:19.894Z,8.73
2018-02-27T11:31:48.006Z,9.87
2018-02-27T11:34:16.145Z,10.87
2018-02-27T11:36:44.258Z,6.47
2018-02-27T11:39:12.400Z,7.17
2018-02-27T11:41:40.519Z,7.47
2018-02-27T11:44:08.661Z,9.43
2018-02-27T11:46:36.785Z,7.77
2018-02-27T11:49:05.853Z,9.03
2018-02-27T11:51:33.965Z,10.07
2018-02-27T11:54:02.087Z,7.83
2018-02-27T11:56:30.323Z,8.60
2018-02-27T11:58:59.176Z,10.97
2018-02-27T12:01:27.793Z,13.03
2018-02-27T12:03:56.458Z,6.70
2018-02-27T12:06:26.950Z,8.70
2018-02-27T12:08:55.066Z,8.23
2018-02-27T12:11:24.001Z,16.20
2018-02-27T12:13:52.256Z,7.17
2018-02-27T12:16:20.826Z,8.57
2018-02-27T12:18:49.706Z,15.23
2018-02-27T12:21:18.680Z,10.53
2018-02-27T12:23:46.830Z,15.20
2018-02-27T12:26:14.974Z,15.43
2018-02-27T12:28:43.644Z,12.87
2018-02-27T12:31:12.230Z,9.67
2018-02-27T12:33:41.953Z,10.53
2018-02-27T12:36:10.293Z,17.37
2018-02-27T12:38:39.782Z,7.90
2018-02-27T12:41:07.966Z,8.50
2018-02-27T12:43:36.076Z,10.37
2018-02-27T12:46:04.214Z,10.27
2018-02-27T12:48:32.346Z,10.07
2018-02-27T12:51:01.803Z,10.93
2018-02-27T12:53:31.121Z,11.17
2018-02-27T12:56:01.270Z,8.80
2018-02-27T12:58:29.394Z,12.10
2018-02-27T13:01:00.954Z,10.10
2018-02-27T13:03:31.113Z,9.40
2018-02-27T13:06:00.165Z,10.53
2018-02-27T13:08:29.045Z,9.80
2018-02-27T13:10:57.194Z,11.63
2018-02-27T13:13:26.776Z,12.07
2018-02-27T13:15:55.270Z,10.70
2018-02-27T13:18:23.386Z,10.73
2018-02-27T13:20:52.309Z,13.23
2018-02-27T13:23:21.694Z,12.73
2018-02-27T13:25:50.596Z,11.10
2018-02-27T13:28:18.714Z,8.90
2018-02-27T13:30:46.842Z,9.63
2018-02-27T13:33:14.957Z,8.63
2018-02-27T13:35:43.197Z,9.13
2018-02-27T13:38:12.509Z,9.63
2018-02-27T13:40:42.127Z,10.20
2018-02-27T13:43:10.463Z,11.10
2018-02-27T13:45:39.474Z,10.40
2018-02-27T13:48:07.712Z,12.97
2018-02-27T13:50:37.399Z,14.53
2018-02-27T13:53:07.809Z,13.70
2018-02-27T13:55:35.942Z,9.70
2018-02-27T13:58:05.942Z,12.27
2018-02-27T14:00:34.080Z,9.50
2018-02-27T14:03:02.188Z,11.00
2018-02-27T14:05:31.588Z,14.20
2018-02-27T14:08:00.565Z,11.70
2018-02-27T14:10:28.688Z,10.43
2018-02-27T14:12:56.811Z,10.17
2018-02-27T14:15:25.426Z,14.37
2018-02-27T14:17:54.300Z,17.03
2018-02-27T14:20:22.873Z,10.53
2018-02-27T14:22:50.974Z,11.33
2018-02-27T14:25:22.448Z,25.73
2018-02-27T14:27:50.556Z,19.40
2018-02-27T14:30:20.026Z,15.47
2018-02-27T14:32:49.481Z,8.63
2018-02-27T14:35:18.598Z,8.20
2018-02-27T14:37:47.856Z,8.00
2018-02-27T14:40:18.137Z,13.83
2018-02-27T14:42:46.983Z,9.87
2018-02-27T14:45:16.520Z,10.03
2018-02-27T14:47:45.403Z,7.57
2018-02-27T14:50:14.319Z,11.80
2018-02-27T14:52:42.436Z,12.33
2018-02-27T14:55:10.579Z,8.23
2018-02-27T14:57:39.966Z,12.63
2018-02-27T15:00:08.092Z,9.57
2018-02-27T15:02:37.051Z,11.13
2018-02-27T15:05:06.846Z,11.90
2018-02-27T15:07:35.425Z,14.60
2018-02-27T15:10:04.300Z,14.33
2018-02-27T15:12:33.625Z,12.60
2018-02-27T15:15:02.265Z,11.70
2018-02-27T15:17:30.414Z,12.80
2018-02-27T15:19:58.537Z,13.73
2018-02-27T15:22:28.581Z,10.80
2018-02-27T15:24:58.055Z,12.73
2018-02-27T15:27:26.187Z,14.53
2018-02-27T15:29:55.579Z,10.83
2018-02-27T15:32:23.730Z,13.87
2018-02-27T15:34:51.853Z,12.87
2018-02-27T15:37:21.383Z,11.57
2018-02-27T15:39:49.488Z,13.37
2018-02-27T15:42:17.627Z,8.80
2018-02-27T15:44:45.750Z,10.70
2018-02-27T15:47:17.992Z,10.80
2018-02-27T15:49:46.914Z,12.40
2018-02-27T15:52:15.069Z,16.10
2018-02-27T15:54:43.686Z,16.77
2018-02-27T15:57:11.859Z,9.87
2018-02-27T15:59:40.468Z,15.30
2018-02-27T16:02:08.631Z,13.43
2018-02-27T16:04:37.299Z,13.80
2018-02-27T16:07:06.440Z,14.47
2018-02-27T16:09:35.333Z,16.47
2018-02-27T16:12:03.478Z,13.53
2018-02-27T16:14:32.026Z,13.70
2018-02-27T16:17:01.658Z,14.70
2018-02-27T16:19:29.782Z,15.77
2018-02-27T16:21:58.709Z,12.00
2018-02-27T16:24:26.845Z,14.50
2018-02-27T16:26:55.748Z,15.00
2018-02-27T16:29:24.395Z,14.57
2018-02-27T16:31:52.533Z,11.40
2018-02-27T16:34:22.420Z,14.60
2018-02-27T16:36:51.323Z,15.53
2018-02-27T16:39:19.439Z,14.53
2018-02-27T16:41:47.580Z,14.33
2018-02-27T16:44:16.153Z,16.77
2018-02-27T16:46:44.303Z,17.60
2018-02-27T16:49:12.418Z,21.17
2018-02-27T16:51:41.782Z,14.57
2018-02-27T16:54:10.683Z,15.40
2018-02-27T16:56:39.581Z,15.83
2018-02-27T16:59:07.718Z,22.63
2018-02-27T17:01:35.845Z,20.63
2018-02-27T17:04:05.919Z,20.50
2018-02-27T17:06:34.109Z,15.83
2018-02-27T17:09:03.188Z,20.33
2018-02-27T17:11:31.950Z,15.40
2018-02-27T17:14:00.484Z,16.03
2018-02-27T17:16:29.398Z,24.73
2018-02-27T17:18:58.592Z,20.13
2018-02-27T17:21:26.739Z,19.17
2018-02-27T17:23:55.629Z,20.83
2018-02-27T17:26:27.308Z,18.30
2018-02-27T17:28:56.175Z,17.37
2018-02-27T17:31:25.986Z,20.03
2018-02-27T17:33:56.312Z,20.53
2018-02-27T17:36:26.721Z,19.23
2018-02-27T17:38:55.686Z,17.00
2018-02-27T17:41:24.273Z,17.70
2018-02-27T17:43:53.580Z,17.20
2018-02-27T17:46:23.288Z,16.80
2018-02-27T17:48:51.889Z,18.20
2018-02-27T17:51:20.049Z,19.90
2018-02-27T17:53:48.678Z,26.43
2018-02-27T17:56:17.325Z,26.67
2018-02-27T17:58:45.448Z,26.53
2018-02-27T18:01:14.770Z,21.77
2018-02-27T18:03:44.453Z,21.13
2018-02-27T18:06:12.609Z,18.37
2018-02-27T18:08:40.788Z,18.83
2018-02-27T18:11:09.604Z,25.43
2018-02-27T18:13:37.788Z,22.57
2018-02-27T18:16:07.333Z,23.77
2018-02-27T18:18:35.556Z,22.77
2018-02-27T18:21:04.447Z,17.50
2018-02-27T18:23:33.078Z,15.10
2018-02-27T18:26:01.212Z,19.53
2018-02-27T18:28:29.617Z,24.80
2018-02-27T18:30:58.580Z,20.97
2018-02-27T18:33:27.200Z,29.83
2018-02-27T18:35:55.334Z,20.93
2018-02-27T18:38:23.542Z,37.20
2018-02-27T18:40:52.895Z,24.27
2018-02-27T18:43:22.438Z,18.53
2018-02-27T18:45:50.984Z,19.90
2018-02-27T18:48:20.082Z,22.73
2018-02-27T18:50:48.300Z,23.63
2018-02-27T18:53:16.444Z,18.50
2018-02-27T18:55:45.881Z,23.90
2018-02-27T18:58:15.775Z,25.37
2018-02-27T19:00:43.905Z,27.60
2018-02-27T19:03:14.552Z,29.67
2018-02-27T19:05:45.281Z,32.47
2018-02-27T19:08:15.088Z,34.37
2018-02-27T19:10:44.645Z,29.03
2018-02-27T19:13:12.797Z,20.67
2018-02-27T19:15:40.920Z,24.33
2018-02-27T19:18:09.660Z,17.37
2018-02-27T19:20:39.158Z,15.20
2018-02-27T19:23:08.644Z,15.87
2018-02-27T19:25:37.523Z,17.47
2018-02-27T19:28:05.664Z,14.17
2018-02-27T19:30:35.196Z,15.43
2018-02-27T19:33:03.454Z,17.97
2018-02-27T19:35:31.568Z,16.53
2018-02-27T19:38:00.499Z,12.80
2018-02-27T19:40:29.124Z,13.30
2018-02-27T19:42:57.302Z,15.30
2018-02-27T19:45:25.421Z,16.17
2018-02-27T19:47:53.567Z,17.10
2018-02-27T19:50:23.047Z,17.10
2018-02-27T19:52:51.781Z,13.57
2018-02-27T19:55:19.892Z,15.47
2018-02-27T19:57:48.058Z,9.43
2018-02-27T20:00:17.588Z,13.43
2018-02-27T20:02:46.618Z,12.40
2018-02-27T20:05:15.696Z,13.70
2018-02-27T20:07:43.876Z,10.00
2018-02-27T20:10:12.760Z,12.40
2018-02-27T20:12:40.909Z,18.03
2018-02-27T20:15:09.041Z,14.00
2018-02-27T20:17:43.910Z,13.63
2018-02-27T20:20:12.822Z,13.33
2018-02-27T20:22:46.606Z,17.07
2018-02-27T20:25:14.725Z,12.90
2018-02-27T20:27:44.107Z,14.70
2018-02-27T20:30:12.367Z,29.83
2018-02-27T20:32:41.413Z,24.37
2018-02-27T20:35:10.291Z,20.20
2018-02-27T20:37:38.853Z,17.83
2018-02-27T20:40:07.774Z,15.13
2018-02-27T20:42:35.908Z,17.50
2018-02-27T20:45:04.052Z,18.93
2018-02-27T20:47:32.209Z,13.10
2018-02-27T20:50:00.331Z,11.60
2018-02-27T20:52:28.820Z,11.60
2018-02-27T20:54:57.693Z,13.23
2018-02-27T20:57:25.837Z,12.33
2018-02-27T20:59:54.735Z,9.80
2018-02-27T21:02:22.876Z,11.17
2018-02-27T21:04:50.988Z,9.30
2018-02-27T21:07:19.509Z,11.10
2018-02-27T21:09:48.452Z,15.27
2018-02-27T21:12:16.600Z,13.23
2018-02-27T21:14:44.716Z,13.07
2018-02-27T21:17:13.227Z,13.77
2018-02-27T21:19:42.138Z,14.13
2018-02-27T21:22:10.262Z,11.83
2018-02-27T21:24:38.392Z,18.00
2018-02-27T21:27:07.366Z,20.10
2018-02-27T21:29:36.275Z,12.20
2018-02-27T21:32:04.946Z,17.10
2018-02-27T21:34:34.539Z,15.10
2018-02-27T21:37:03.417Z,15.60
2018-02-27T21:39:31.562Z,14.17
2018-02-27T21:42:00.245Z,12.53
2018-02-27T21:44:28.386Z,16.17
2018-02-27T21:46:56.503Z,14.73
2018-02-27T21:49:25.707Z,11.60
2018-02-27T21:51:53.932Z,13.77
2018-02-27T21:54:22.098Z,12.43
2018-02-27T21:56:51.089Z,14.43
2018-02-27T21:59:20.301Z,13.87
2018-02-27T22:01:49.691Z,15.63
2018-02-27T22:04:18.467Z,21.40
2018-02-27T22:06:47.362Z,13.63
2018-02-27T22:09:16.284Z,16.80
2018-02-27T22:11:45.923Z,15.37
2018-02-27T22:14:14.222Z,11.67
2018-02-27T22:16:42.819Z,15.27
2018-02-27T22:19:11.828Z,12.13
2018-02-27T22:21:40.734Z,15.07
2018-02-27T22:24:08.899Z,24.73
2018-02-27T22:26:37.007Z,22.10
2018-02-27T22:29:05.141Z,16.97
2018-02-27T22:31:33.268Z,20.87
2018-02-27T22:34:01.419Z,14.50
2018-02-27T22:36:29.531Z,15.83
2018-02-27T22:38:58.126Z,21.47
2018-02-27T22:41:26.265Z,17.50
2018-02-27T22:43:54.415Z,20.80
2018-02-27T22:46:23.020Z,22.30
2018-02-27T22:48:51.170Z,19.80
2018-02-27T22:51:19.581Z,19.03
2018-02-27T22:53:47.724Z,21.80
2018-02-27T22:56:15.869Z,19.67
2018-02-27T22:58:44.805Z,22.73
2018-02-27T23:01:12.933Z,19.50
2018-02-27T23:03:41.900Z,18.67
2018-02-27T23:06:10.023Z,22.17
2018-02-27T23:08:38.221Z,20.17
2018-02-27T23:11:06.441Z,18.27
2018-02-27T23:13:35.341Z,18.40
2018-02-27T23:16:03.915Z,22.67
2018-02-27T23:18:32.834Z,23.70
2018-02-27T23:21:00.973Z,21.50
2018-02-27T23:23:29.134Z,18.00
2018-02-27T23:26:01.573Z,18.43
2018-02-27T23:28:30.410Z,23.17
2018-02-27T23:30:58.622Z,19.17
2018-02-27T23:33:29.851Z,19.50
2018-02-27T23:35:58.754Z,20.77
2018-02-27T23:38:26.901Z,20.87
2018-02-27T23:40:56.198Z,23.23
2018-02-27T23:43:24.336Z,18.13
2018-02-27T23:45:52.822Z,18.60
2018-02-27T23:48:22.013Z,26.60
2018-02-27T23:50:50.131Z,22.10
2018-02-27T23:53:19.040Z,24.87
2018-02-27T23:55:47.165Z,21.07
2018-02-27T23:58:15.845Z,18.23
